Time;durP1;ratioP1;P1;durP2;ratioP2;P2;SDS_P1;SDS_P2;PMS_P1;PMS_P2;Temp;Humidity;BMP_temperature;BMP_pressure;BME280_temperature;BME280_humidity;BME280_pressure;Samples;Min_cycle;Max_cycle;Signal;HPM_P1;HPM_P2
2024/03/30 00:02:09;;;;;;;66.40;11.75;;;;;;;14.44;45.80;94964.81;4955242;29;20055;-80
2024/03/30 00:04:35;;;;;;;66.57;12.45;;;;;;;14.46;46.26;94961.94;4971644;28;20408;-80
2024/03/30 00:07:02;;;;;;;91.90;11.80;;;;;;;14.45;45.78;94976.88;4955336;29;20126;-80
2024/03/30 00:09:27;;;;;;;74.45;13.45;;;;;;;14.45;45.91;94976.88;4955090;29;20047;-79
2024/03/30 00:11:54;;;;;;;71.68;9.95;;;;;;;14.47;45.45;94969.56;4954815;28;20066;-80
2024/03/30 00:14:22;;;;;;;80.75;13.82;;;;;;;14.48;45.43;94965.91;4955342;29;20503;-79
2024/03/30 00:16:49;;;;;;;63.90;11.80;;;;;;;14.51;45.98;94965.41;4955285;28;20055;-80
2024/03/30 00:19:15;;;;;;;58.63;10.38;;;;;;;14.52;45.41;94972.25;4954699;28;20059;-79
2024/03/30 00:21:43;;;;;;;68.47;12.57;;;;;;;14.51;44.78;94965.41;4956138;28;20055;-80
2024/03/30 00:24:09;;;;;;;58.58;10.10;;;;;;;14.53;46.01;94965.16;4955482;29;20083;-80
2024/03/30 00:26:37;;;;;;;67.85;10.38;;;;;;;14.50;45.51;94965.69;4954526;28;20056;-80
2024/03/30 00:29:03;;;;;;;66.07;11.70;;;;;;;14.45;44.93;94976.09;4954681;28;20066;-80
2024/03/30 00:31:33;;;;;;;70.72;12.63;;;;;;;14.45;44.59;94974.25;4954564;28;20508;-79
2024/03/30 00:33:59;;;;;;;81.82;13.02;;;;;;;14.44;44.15;94967.44;4954513;28;20047;-79
2024/03/30 00:36:26;;;;;;;64.85;10.07;;;;;;;14.46;44.58;94967.19;4954524;29;20415;-80
2024/03/30 00:38:52;;;;;;;71.13;12.25;;;;;;;14.43;45.68;94971.91;4954743;28;20047;-80
2024/03/30 00:41:19;;;;;;;64.00;11.68;;;;;;;14.40;45.63;94976.84;4954543;29;20142;-79
2024/03/30 00:43:45;;;;;;;62.90;11.50;;;;;;;14.37;45.57;94978.13;4954651;29;20055;-80
2024/03/30 00:46:12;;;;;;;71.88;12.93;;;;;;;14.35;44.87;94972.31;4954403;29;20387;-80
2024/03/30 00:48:39;;;;;;;67.20;10.27;;;;;;;14.36;43.98;94987.00;4954206;29;20114;-79
2024/03/30 00:51:06;;;;;;;71.25;13.15;;;;;;;14.36;44.19;94983.59;4954513;29;20133;-80
2024/03/30 00:53:32;;;;;;;63.13;11.38;;;;;;;14.35;45.50;94987.28;4954514;28;20425;-80
2024/03/30 00:56:01;;;;;;;66.20;11.13;;;;;;;14.30;45.65;94982.75;4954236;29;20090;-80
2024/03/30 00:58:28;;;;;;;60.20;9.43;;;;;;;14.27;44.92;94974.59;4954458;28;20059;-80
2024/03/30 01:00:55;;;;;;;62.83;9.23;;;;;;;14.25;44.80;94985.31;4959110;29;20110;-80
2024/03/30 01:03:20;;;;;;;75.45;13.40;;;;;;;14.26;44.56;94979.03;4961571;28;20063;-80
2024/03/30 01:05:49;;;;;;;57.22;11.63;;;;;;;14.27;44.12;94975.38;4956570;29;20106;-80
2024/03/30 01:08:16;;;;;;;68.10;10.30;;;;;;;14.28;43.61;94976.97;4954274;28;20051;-80
2024/03/30 01:10:43;;;;;;;48.97;8.90;;;;;;;14.27;43.93;94971.97;4957302;29;20063;-79
2024/03/30 01:13:10;;;;;;;64.18;9.90;;;;;;;14.29;43.38;94978.53;4959980;28;20507;-80
2024/03/30 01:15:37;;;;;;;64.85;10.85;;;;;;;14.31;42.91;94979.09;4954304;28;20066;-79
2024/03/30 01:18:04;;;;;;;68.47;9.68;;;;;;;14.35;42.27;94967.06;4954434;29;20125;-79
2024/03/30 01:20:31;;;;;;;53.60;9.77;;;;;;;14.39;43.20;94962.16;4953881;28;20098;-79
2024/03/30 01:22:58;;;;;;;61.15;10.38;;;;;;;14.38;43.24;94969.19;4953580;28;20058;-79
2024/03/30 01:25:27;;;;;;;63.55;9.85;;;;;;;14.40;43.10;94972.38;4954408;29;20063;-80
2024/03/30 01:27:55;;;;;;;50.65;9.38;;;;;;;14.43;42.55;94974.53;4965285;29;20055;-80
2024/03/30 01:30:23;;;;;;;55.50;9.30;;;;;;;14.45;41.83;94960.34;4971953;29;20039;-80
2024/03/30 01:32:49;;;;;;;54.63;8.93;;;;;;;14.45;42.88;94973.47;4965071;29;20496;-80
2024/03/30 01:35:17;;;;;;;69.80;10.05;;;;;;;14.45;41.86;94966.38;4954468;28;20055;-80
2024/03/30 01:37:43;;;;;;;57.00;10.40;;;;;;;14.48;41.44;94970.38;4953364;29;20624;-80
2024/03/30 01:40:11;;;;;;;55.00;9.45;;;;;;;14.52;40.63;94981.94;4953666;29;20063;-80
2024/03/30 01:42:38;;;;;;;56.15;9.55;;;;;;;14.54;41.69;94972.00;4953646;28;20523;-80
2024/03/30 01:45:05;;;;;;;46.13;9.13;;;;;;;14.54;40.68;94949.19;4954343;29;20082;-80
2024/03/30 01:47:31;;;;;;;43.42;7.55;;;;;;;14.56;41.55;94972.56;4953811;29;20058;-80
2024/03/30 01:50:00;;;;;;;50.97;8.55;;;;;;;14.60;40.02;94976.28;4953790;29;20055;-80
2024/03/30 01:52:30;;;;;;;46.25;7.82;;;;;;;14.62;40.63;94959.25;4954147;28;20070;-80
2024/03/30 01:54:57;;;;;;;48.00;9.75;;;;;;;14.64;40.41;94969.50;4954463;28;20065;-79
2024/03/30 01:57:26;;;;;;;44.42;8.02;;;;;;;14.66;40.74;94969.28;4954120;29;20081;-79
2024/03/30 01:59:53;;;;;;;55.13;7.90;;;;;;;14.66;39.00;94964.03;4954147;28;20055;-80
2024/03/30 02:02:19;;;;;;;42.15;6.90;;;;;;;14.67;40.18;94969.03;4955142;29;20082;-80
2024/03/30 02:04:47;;;;;;;42.90;7.38;;;;;;;14.69;38.80;94950.41;4955054;28;20059;-80
2024/03/30 02:07:14;;;;;;;32.85;5.65;;;;;;;14.73;38.16;94968.03;4953636;28;20070;-80
2024/03/30 02:09:41;;;;;;;39.42;5.75;;;;;;;14.76;39.15;94972.78;4953508;29;20063;-80
2024/03/30 02:12:08;;;;;;;36.83;6.85;;;;;;;14.78;38.80;94939.22;4953598;28;20503;-79
2024/03/30 02:14:36;;;;;;;37.85;5.65;;;;;;;14.86;37.84;94961.59;4953959;28;20059;-79
2024/03/30 02:17:02;;;;;;;39.78;6.78;;;;;;;14.89;37.98;94960.28;4953533;28;20059;-79
2024/03/30 02:19:32;;;;;;;32.17;5.85;;;;;;;14.91;38.60;94952.97;4971072;28;20062;-81
2024/03/30 02:21:58;;;;;;;43.00;7.40;;;;;;;14.90;37.44;94949.53;4974878;28;20053;-80
2024/03/30 02:24:26;;;;;;;44.53;8.02;;;;;;;14.90;36.95;94967.94;4975167;28;20035;-81
2024/03/30 02:26:52;;;;;;;37.97;5.05;;;;;;;14.91;37.43;94961.66;4969973;28;20055;-80
2024/03/30 02:29:27;;;;;;;42.50;7.43;;;;;;;14.92;36.62;94954.56;4955584;29;20048;-79
2024/03/30 02:31:55;;;;;;;38.28;5.82;;;;;;;14.92;36.56;94944.06;4958470;29;20431;-80
2024/03/30 02:34:21;;;;;;;29.98;5.85;;;;;;;14.95;36.69;94954.06;4961134;28;20047;-80
2024/03/30 02:36:48;;;;;;;29.02;5.47;;;;;;;14.95;37.30;94946.16;4957576;28;20051;-80
2024/03/30 02:39:15;;;;;;;35.45;5.82;;;;;;;14.94;36.47;94945.38;4957292;28;20496;-79
2024/03/30 02:41:42;;;;;;;42.15;5.60;;;;;;;14.98;35.77;94953.56;4957233;28;20055;-80
2024/03/30 02:44:09;;;;;;;36.25;6.00;;;;;;;15.03;35.49;94954.38;4957360;28;20051;-80
2024/03/30 02:46:35;;;;;;;28.25;4.53;;;;;;;15.07;36.55;94940.78;4957026;28;20051;-80
2024/03/30 02:49:02;;;;;;;28.75;5.82;;;;;;;15.08;35.79;94943.13;4957348;28;20051;-79
2024/03/30 02:51:28;;;;;;;36.97;5.18;;;;;;;15.08;35.53;94937.88;4957241;28;20066;-79
2024/03/30 02:53:56;;;;;;;43.65;6.57;;;;;;;15.11;35.46;94931.31;4956905;28;20059;-80
2024/03/30 02:56:22;;;;;;;30.83;5.78;;;;;;;15.11;35.29;94942.66;4956526;28;20059;-79
2024/03/30 02:58:51;;;;;;;31.17;5.25;;;;;;;15.13;35.00;94939.75;4956915;28;20063;-80
2024/03/30 03:01:17;;;;;;;33.55;5.18;;;;;;;15.14;35.24;94931.63;4956310;29;20043;-80
2024/03/30 03:03:44;;;;;;;32.88;5.38;;;;;;;15.13;35.98;94937.94;4957434;28;20055;-79
2024/03/30 03:06:11;;;;;;;32.63;4.38;;;;;;;15.13;35.82;94940.56;4956758;28;20054;-80
2024/03/30 03:08:39;;;;;;;36.67;4.93;;;;;;;15.10;35.30;94935.78;4956292;28;20047;-80
2024/03/30 03:11:05;;;;;;;32.60;5.07;;;;;;;15.11;35.08;94944.47;4956702;28;20118;-79
2024/03/30 03:13:32;;;;;;;35.38;6.03;;;;;;;15.11;34.93;94936.59;4956488;28;20103;-80
2024/03/30 03:16:04;;;;;;;27.00;6.30;;;;;;;15.09;34.68;94939.47;4956551;28;20499;-80
2024/03/30 03:18:31;;;;;;;33.53;4.82;;;;;;;15.10;35.74;94943.66;4956270;28;20047;-80
2024/03/30 03:20:57;;;;;;;30.58;5.97;;;;;;;15.10;35.23;94935.00;4956436;28;20055;-80
2024/03/30 03:23:27;;;;;;;39.60;5.47;;;;;;;15.08;35.29;94930.00;4956621;28;20113;-80
2024/03/30 03:25:53;;;;;;;31.02;5.30;;;;;;;15.09;35.05;94922.94;4956602;28;20054;-79
2024/03/30 03:28:21;;;;;;;30.52;5.38;;;;;;;15.08;35.52;94922.13;4956000;28;20055;-80
2024/03/30 03:30:48;;;;;;;39.10;5.45;;;;;;;15.09;35.29;94918.47;4956420;29;20519;-80
2024/03/30 03:33:16;;;;;;;26.45;5.00;;;;;;;15.08;34.66;94910.84;4956314;28;20132;-80
2024/03/30 03:35:42;;;;;;;32.22;4.93;;;;;;;15.10;35.05;94911.38;4955980;28;20507;-80
2024/03/30 03:38:10;;;;;;;25.80;4.20;;;;;;;15.09;35.45;94910.59;4955738;28;20059;-79
2024/03/30 03:40:36;;;;;;;31.88;4.60;;;;;;;15.06;35.32;94903.19;4955594;28;20071;-80
2024/03/30 03:43:03;;;;;;;30.90;4.85;;;;;;;15.04;35.29;94910.53;4955985;29;20070;-80
2024/03/30 03:45:29;;;;;;;27.25;4.50;;;;;;;15.03;35.23;94901.09;4955117;28;20051;-79
2024/03/30 03:47:55;;;;;;;34.38;5.15;;;;;;;15.03;35.73;94885.34;4955610;28;20423;-80
2024/03/30 03:50:23;;;;;;;26.23;4.80;;;;;;;15.02;35.00;94883.72;4955520;28;20051;-80
2024/03/30 03:52:51;;;;;;;33.13;5.82;;;;;;;15.04;35.29;94894.78;4955412;28;20435;-80
2024/03/30 03:55:17;;;;;;;39.03;6.85;;;;;;;15.04;35.38;94889.53;4955655;28;20055;-80
2024/03/30 03:57:44;;;;;;;33.33;5.63;;;;;;;15.01;36.00;94892.66;4957013;28;20068;-79
2024/03/30 04:00:11;;;;;;;43.55;7.30;;;;;;;14.99;35.65;94897.38;4956174;28;20055;-80
2024/03/30 04:02:38;;;;;;;33.55;5.40;;;;;;;14.96;36.02;94884.75;4956157;29;20050;-80
2024/03/30 04:05:04;;;;;;;47.85;6.05;;;;;;;14.95;35.74;94893.66;4956066;28;20066;-80
2024/03/30 04:07:32;;;;;;;38.58;5.80;;;;;;;14.92;36.32;94902.84;4955706;29;20055;-80
2024/03/30 04:09:59;;;;;;;45.53;6.00;;;;;;;14.90;35.79;94904.91;4955524;28;20055;-80
2024/03/30 04:12:28;;;;;;;34.20;6.10;;;;;;;14.89;36.34;94913.03;4955259;28;20512;-80
2024/03/30 04:14:54;;;;;;;35.58;6.05;;;;;;;14.86;36.92;94893.34;4954955;28;20055;-79
2024/03/30 04:17:21;;;;;;;35.42;6.13;;;;;;;14.83;36.22;94894.63;4954952;28;20117;-79
2024/03/30 04:19:48;;;;;;;39.83;5.82;;;;;;;14.83;35.96;94886.75;4955281;28;20051;-80
2024/03/30 04:22:15;;;;;;;34.42;5.25;;;;;;;14.80;35.97;94883.81;4955148;28;20055;-79
2024/03/30 04:24:42;;;;;;;40.63;6.05;;;;;;;14.77;36.01;94877.25;4954614;28;20062;-80
2024/03/30 04:27:09;;;;;;;48.25;8.32;;;;;;;14.73;36.20;94873.53;4954814;28;20055;-80
2024/03/30 04:29:35;;;;;;;31.70;5.57;;;;;;;14.71;36.33;94875.63;4955022;28;20538;-80
2024/03/30 04:32:03;;;;;;;37.85;6.22;;;;;;;14.69;36.40;94874.28;4957572;28;20058;-80
2024/03/30 04:34:29;;;;;;;27.33;5.13;;;;;;;14.65;36.43;94873.19;4959834;28;20051;-80
2024/03/30 04:36:56;;;;;;;37.28;5.53;;;;;;;14.61;36.80;94880.78;4958712;28;20434;-80
2024/03/30 04:39:23;;;;;;;26.95;5.07;;;;;;;14.59;36.89;94882.88;4955754;28;20055;-79
2024/03/30 04:41:52;;;;;;;39.67;6.10;;;;;;;14.56;36.81;94881.53;4955205;28;20051;-80
2024/03/30 04:44:20;;;;;;;40.97;5.60;;;;;;;14.53;37.22;94884.63;4971380;28;20065;-80
2024/03/30 04:46:46;;;;;;;36.63;5.50;;;;;;;14.48;37.14;94884.59;4979029;28;20061;-80
2024/03/30 04:49:13;;;;;;;33.67;6.03;;;;;;;14.44;37.27;94893.97;4969155;28;20051;-80
2024/03/30 04:51:39;;;;;;;40.58;7.80;;;;;;;14.41;36.87;94894.50;4955652;28;20054;-79
2024/03/30 04:54:05;;;;;;;35.45;6.35;;;;;;;14.41;36.86;94904.97;4955199;29;20074;-80
2024/03/30 04:56:31;;;;;;;35.33;6.43;;;;;;;14.37;37.32;94907.28;4954322;28;20055;-80
2024/03/30 04:58:59;;;;;;;40.85;6.50;;;;;;;14.34;37.33;94896.50;4953935;28;20483;-79
2024/03/30 05:01:26;;;;;;;37.75;6.18;;;;;;;14.30;37.86;94885.72;4954735;28;20051;-79
2024/03/30 05:03:53;;;;;;;40.08;6.25;;;;;;;14.27;38.64;94896.69;4954404;29;20055;-80
2024/03/30 05:06:20;;;;;;;31.35;6.10;;;;;;;14.23;38.11;94900.84;4954270;28;20509;-80
2024/03/30 05:08:47;;;;;;;39.90;6.43;;;;;;;14.22;38.28;94909.75;4954185;28;20530;-80
2024/03/30 05:11:13;;;;;;;43.45;6.75;;;;;;;14.20;38.14;94896.09;4954506;28;20051;-80
2024/03/30 05:13:41;;;;;;;43.30;6.82;;;;;;;14.16;38.17;94893.16;4954768;28;20051;-80
2024/03/30 05:16:09;;;;;;;44.85;7.32;;;;;;;14.14;38.76;94900.47;4954355;28;20066;-79
2024/03/30 05:18:37;;;;;;;37.40;6.18;;;;;;;14.08;38.67;94898.03;4954264;29;20138;-79
2024/03/30 05:21:03;;;;;;;40.17;6.00;;;;;;;14.02;38.47;94903.25;4953843;28;20052;-79
2024/03/30 05:23:32;;;;;;;38.47;5.80;;;;;;;14.00;39.09;94905.31;4954808;28;20055;-80
2024/03/30 05:25:59;;;;;;;44.22;7.10;;;;;;;13.99;38.19;94898.50;4954733;28;20069;-79
2024/03/30 05:28:29;;;;;;;44.13;6.85;;;;;;;14.02;37.63;94900.63;4954698;28;20500;-80
2024/03/30 05:30:56;;;;;;;40.42;6.93;;;;;;;14.07;38.40;94907.75;4954210;29;20052;-79
2024/03/30 05:33:26;;;;;;;48.42;8.98;;;;;;;14.08;38.00;94908.53;4953877;29;20427;-80
2024/03/30 05:35:53;;;;;;;45.00;8.50;;;;;;;14.06;38.36;94910.59;4955812;28;20059;-80
2024/03/30 05:38:21;;;;;;;45.85;8.93;;;;;;;14.04;38.54;94902.19;4955888;28;20114;-79
2024/03/30 05:40:48;;;;;;;42.92;7.88;;;;;;;14.00;38.57;94907.94;4956546;28;20055;-80
2024/03/30 05:43:14;;;;;;;48.92;7.57;;;;;;;13.96;38.80;94901.59;4955600;29;20083;-79
2024/03/30 05:45:42;;;;;;;48.80;7.53;;;;;;;13.89;39.05;94906.22;4955653;28;20428;-80
2024/03/30 05:48:09;;;;;;;55.10;6.50;;;;;;;13.83;39.54;94904.59;4955128;28;20051;-80
2024/03/30 05:50:36;;;;;;;48.15;7.68;;;;;;;13.77;39.77;94908.16;4954426;28;20062;-80
2024/03/30 05:53:04;;;;;;;41.03;7.07;;;;;;;13.69;40.05;94900.75;4953822;28;20063;-80
2024/03/30 05:55:30;;;;;;;43.95;6.53;;;;;;;13.62;40.19;94900.13;4954009;28;20066;-80
2024/03/30 05:58:02;;;;;;;51.63;7.60;;;;;;;13.56;40.28;94896.66;4953654;28;20051;-80
2024/03/30 06:00:29;;;;;;;45.78;8.85;;;;;;;13.47;40.73;94906.75;4953742;28;20051;-79
2024/03/30 06:02:56;;;;;;;44.80;8.23;;;;;;;13.39;40.60;94899.28;4953723;28;20541;-79
2024/03/30 06:05:22;;;;;;;44.47;7.80;;;;;;;13.34;40.74;94904.47;4955022;28;20043;-80
2024/03/30 06:07:50;;;;;;;48.80;8.80;;;;;;;13.31;40.56;94910.16;4953804;28;20424;-80
2024/03/30 09:22:22;;;;;;;;;;;;;;;19.43;29.44;94843.72;5213253;23;20265;-83
2024/03/30 09:25:18;;;;;;;48.97;7.85;;;;;;;19.37;28.09;94850.13;4977843;28;19926;-83
2024/03/30 09:35:58;;;;;;;41.25;7.05;;;;;;;19.13;28.40;94858.78;5000305;23;20270;-83
2024/03/30 09:38:30;;;;;;;45.45;7.28;;;;;;;19.09;28.75;94849.88;4999218;28;20035;-83
2024/03/30 09:41:34;;;;;;;35.75;6.78;;;;;;;19.06;28.26;94853.03;4999262;28;20046;-82
2024/03/30 09:44:06;;;;;;;43.22;7.28;;;;;;;19.02;28.06;94846.72;5000594;28;20035;-83
2024/03/30 09:47:10;;;;;;;50.55;7.60;;;;;;;18.93;28.29;94843.91;5003513;28;20030;-85
2024/03/30 09:50:15;;;;;;;39.30;6.63;;;;;;;18.84;28.06;94846.34;5003215;28;20046;-82
2024/03/30 10:13:33;;;;;;;34.78;6.80;;;;;;;18.56;29.95;94852.34;5255054;23;20062;-82
2024/03/30 10:16:07;;;;;;;43.35;6.85;;;;;;;18.56;30.17;94857.63;4967641;28;20042;-82
2024/03/30 10:24:12;;;;;;;46.97;7.70;;;;;;;18.50;30.25;94852.38;5453507;23;20058;-82
2024/03/30 10:26:48;;;;;;;41.63;6.97;;;;;;;18.54;30.37;94844.69;5001850;28;20059;-82
2024/03/30 10:29:27;;;;;;;43.15;7.90;;;;;;;18.56;30.37;94845.22;5002193;28;20031;-83
2024/03/30 10:31:57;;;;;;;52.50;7.55;;;;;;;18.58;30.50;94851.00;5000462;28;20031;-83
2024/03/30 10:34:31;;;;;;;49.22;7.13;;;;;;;18.60;30.68;94843.59;5926426;23;20026;-82
2024/03/30 10:37:09;;;;;;;45.08;7.38;;;;;;;18.63;30.55;94855.47;4981856;28;20039;-83
2024/03/30 10:39:54;;;;;;;50.88;8.48;;;;;;;18.64;30.56;94851.78;4982511;28;20035;-82
2024/03/30 10:42:27;;;;;;;43.88;6.78;;;;;;;18.68;31.01;94847.53;4947060;28;20036;-83
2024/03/30 11:42:26;;;;;;;43.28;6.40;;;;;;;20.21;31.11;94820.59;5655899;23;20091;-83
2024/03/30 14:11:07;;;;;;;31.08;6.43;;;;;;;20.20;30.31;94750.19;3335351;23;20109;-80
2024/03/30 14:13:34;;;;;;;42.60;8.07;;;;;;;20.17;30.21;94746.25;4974884;28;20059;-81
2024/03/30 14:16:01;;;;;;;30.70;6.55;;;;;;;20.13;30.65;94747.91;4974099;28;20051;-81
2024/03/30 14:18:28;;;;;;;35.95;6.50;;;;;;;20.06;30.16;94748.25;4973955;28;20055;-81
2024/03/30 14:20:56;;;;;;;41.67;7.97;;;;;;;20.00;30.20;94744.09;4973257;28;20518;-81
2024/03/30 14:23:22;;;;;;;48.30;8.75;;;;;;;19.99;30.66;94750.47;4973270;28;20051;-81
2024/03/30 14:25:49;;;;;;;47.17;6.88;;;;;;;19.97;30.90;94749.97;4973184;28;20537;-81
2024/03/30 14:28:17;;;;;;;33.70;5.75;;;;;;;19.93;30.90;94754.25;4973025;28;20065;-81
2024/03/30 14:30:45;;;;;;;40.35;6.85;;;;;;;19.93;31.05;94756.91;4975741;28;20054;-81
2024/03/30 14:33:12;;;;;;;41.22;7.25;;;;;;;19.90;31.25;94752.97;4977048;28;20079;-81
2024/03/30 14:35:39;;;;;;;49.83;7.35;;;;;;;19.88;31.39;94759.63;4976761;28;20054;-81
2024/03/30 14:38:06;;;;;;;35.88;5.43;;;;;;;19.87;31.45;94755.41;4992018;28;20054;-81
2024/03/30 14:40:33;;;;;;;41.05;6.20;;;;;;;19.86;31.61;94759.13;5000124;28;20053;-82
2024/03/30 14:43:00;;;;;;;36.05;6.60;;;;;;;19.83;31.90;94755.19;4988052;28;20051;-81
2024/03/30 14:45:28;;;;;;;32.65;6.07;;;;;;;19.82;31.77;94758.13;4978127;28;20071;-81
2024/03/30 14:47:55;;;;;;;35.63;5.32;;;;;;;19.80;31.93;94752.34;4978018;28;20058;-81
2024/03/30 14:50:22;;;;;;;33.80;6.45;;;;;;;19.78;32.13;94760.53;4977414;28;20061;-81
2024/03/30 14:52:48;;;;;;;43.75;6.93;;;;;;;19.77;32.51;94756.34;4977050;28;20050;-81
2024/03/30 14:55:15;;;;;;;37.97;5.68;;;;;;;19.74;32.84;94765.63;4976927;28;20506;-81
2024/03/30 14:57:44;;;;;;;44.15;6.65;;;;;;;19.72;32.84;94757.19;4977176;28;20058;-81
2024/03/30 15:00:12;;;;;;;39.30;6.18;;;;;;;19.70;33.04;94767.28;4976969;28;20054;-81
2024/03/30 15:02:39;;;;;;;45.67;5.93;;;;;;;19.67;33.43;94767.00;4976837;28;20109;-81
2024/03/30 15:05:07;;;;;;;31.70;5.63;;;;;;;19.63;33.74;94780.00;4977840;28;20055;-80
2024/03/30 15:07:33;;;;;;;29.45;5.97;;;;;;;19.59;33.74;94794.88;4976195;28;20051;-81
2024/03/30 15:10:00;;;;;;;39.80;7.28;;;;;;;19.50;33.41;94786.78;4976371;28;20094;-81
2024/03/30 15:12:26;;;;;;;48.30;7.97;;;;;;;19.44;33.78;94781.81;4976057;28;20047;-81
2024/03/30 15:14:53;;;;;;;26.05;5.55;;;;;;;19.39;33.87;94789.81;4977290;28;20058;-81
2024/03/30 15:17:20;;;;;;;38.30;5.93;;;;;;;19.34;34.20;94798.59;4976259;28;20055;-81
2024/03/30 15:19:49;;;;;;;43.25;6.47;;;;;;;19.26;35.45;94797.38;4976258;28;20422;-81
2024/03/30 15:22:16;;;;;;;34.95;6.57;;;;;;;19.14;36.01;94794.31;4975873;28;20054;-81
2024/03/30 15:24:43;;;;;;;37.33;7.30;;;;;;;19.06;36.81;94797.56;4976100;28;20066;-81
2024/03/30 15:27:09;;;;;;;41.60;6.97;;;;;;;18.98;37.30;94803.44;4975798;28;20062;-82
2024/03/30 15:29:49;;;;;;;38.95;6.63;;;;;;;18.89;37.61;94801.41;4975902;28;20066;-81
2024/03/30 15:32:23;;;;;;;38.65;6.85;;;;;;;18.81;37.81;94799.38;4975952;28;20241;-81
2024/03/30 15:34:51;;;;;;;39.40;6.55;;;;;;;18.72;38.10;94803.66;4975306;28;20530;-81
2024/03/30 15:37:18;;;;;;;35.92;5.80;;;;;;;18.66;38.21;94805.53;4975768;28;20062;-81
2024/03/30 15:39:46;;;;;;;48.25;8.77;;;;;;;18.60;38.26;94806.63;4975734;28;20059;-81
2024/03/30 15:42:13;;;;;;;32.33;5.65;;;;;;;18.53;38.30;94812.22;4975110;28;20047;-81
2024/03/30 15:44:40;;;;;;;35.83;7.07;;;;;;;18.46;38.17;94808.34;4976490;28;20051;-81
2024/03/30 15:47:08;;;;;;;33.42;6.78;;;;;;;18.41;38.24;94814.44;4975664;28;20062;-81
2024/03/30 15:49:36;;;;;;;31.50;5.40;;;;;;;18.35;38.51;94823.47;4978597;28;20415;-80
2024/03/30 15:52:05;;;;;;;33.85;7.25;;;;;;;18.29;38.27;94827.19;4977693;28;20062;-79
2024/03/30 15:54:31;;;;;;;41.78;6.70;;;;;;;18.22;38.22;94832.75;4975526;28;20066;-81
2024/03/30 15:56:58;;;;;;;30.48;5.50;;;;;;;18.17;38.66;94845.19;4975343;28;20099;-81
2024/03/30 15:59:24;;;;;;;30.10;6.95;;;;;;;18.14;38.87;94845.75;4975528;28;20438;-81
2024/03/30 16:01:51;;;;;;;50.70;6.90;;;;;;;18.08;38.42;94848.41;4974849;28;20053;-82
2024/03/30 16:04:17;;;;;;;27.40;6.72;;;;;;;18.03;38.59;94858.97;4982810;28;20081;-81
2024/03/30 16:06:44;;;;;;;23.90;6.15;;;;;;;17.99;38.87;94865.84;4975904;28;20043;-82
2024/03/30 16:09:11;;;;;;;37.67;6.22;;;;;;;17.95;38.70;94867.47;4974846;28;20450;-81
2024/03/30 16:11:39;;;;;;;28.15;5.05;;;;;;;17.89;38.52;94871.19;4974991;28;20051;-81
2024/03/30 16:14:05;;;;;;;32.63;5.78;;;;;;;17.85;38.47;94881.47;4974640;28;20063;-82
2024/03/30 16:16:32;;;;;;;33.67;5.75;;;;;;;17.83;38.40;94880.19;4974778;28;20055;-82
2024/03/30 16:18:58;;;;;;;35.38;5.72;;;;;;;17.76;38.54;94884.94;4974497;28;20050;-81
2024/03/30 16:21:25;;;;;;;28.42;4.53;;;;;;;17.67;38.89;94889.97;4974332;28;20047;-82
2024/03/30 16:23:51;;;;;;;37.70;6.10;;;;;;;17.61;38.93;94896.31;4974770;28;20062;-78
2024/03/30 16:26:20;;;;;;;46.60;8.52;;;;;;;17.54;39.31;94901.84;4975312;28;20058;-82
2024/03/30 16:28:46;;;;;;;38.83;8.02;;;;;;;17.44;39.44;94907.91;4974874;28;20058;-81
2024/03/30 16:31:13;;;;;;;34.33;6.45;;;;;;;17.37;39.62;94912.69;4974644;28;20050;-81
2024/03/30 16:33:39;;;;;;;26.98;5.28;;;;;;;17.34;39.62;94917.69;4974687;28;20062;-80
2024/03/30 16:36:06;;;;;;;29.40;6.20;;;;;;;17.29;39.99;94919.28;4974472;28;20054;-81
2024/03/30 16:38:33;;;;;;;25.98;7.40;;;;;;;17.24;40.13;94923.75;4974424;28;20054;-81
2024/03/30 16:41:04;;;;;;;36.70;5.97;;;;;;;17.15;40.81;94923.50;4973912;28;20534;-81
2024/03/30 16:43:31;;;;;;;36.95;6.15;;;;;;;17.07;40.74;94924.81;4974104;28;20506;-81
2024/03/30 16:46:02;;;;;;;31.45;6.15;;;;;;;16.99;40.93;94948.25;4974172;28;20051;-81
2024/03/30 16:48:28;;;;;;;31.90;6.43;;;;;;;16.92;41.24;94937.97;4974703;28;20450;-81
2024/03/30 16:51:00;;;;;;;31.10;5.80;;;;;;;16.89;41.98;94934.03;4974004;28;20050;-81
2024/03/30 16:53:26;;;;;;;41.70;6.20;;;;;;;16.80;41.77;94934.81;4973107;28;20047;-81
2024/03/30 16:55:56;;;;;;;35.05;5.80;;;;;;;16.69;42.00;94939.25;4974282;28;20054;-81
2024/03/30 16:58:23;;;;;;;30.88;5.97;;;;;;;16.62;42.35;94943.97;4973957;28;20051;-81
2024/03/30 17:00:57;;;;;;;31.52;5.63;;;;;;;16.57;42.95;94943.94;4974325;28;20054;-81
2024/03/30 17:03:25;;;;;;;29.25;6.03;;;;;;;16.51;43.00;94937.06;4973858;28;20050;-81
2024/03/30 17:05:52;;;;;;;35.75;6.45;;;;;;;16.41;43.02;94941.25;4974086;28;20066;-81
2024/03/30 17:08:19;;;;;;;34.80;6.55;;;;;;;16.37;43.20;94947.31;4973702;28;20473;-81
2024/03/30 17:10:46;;;;;;;34.17;6.43;;;;;;;16.30;43.48;94955.44;4973724;28;20058;-81
2024/03/30 17:13:13;;;;;;;30.60;5.93;;;;;;;16.27;43.82;94955.97;4974072;28;20058;-81
2024/03/30 17:15:40;;;;;;;23.23;5.03;;;;;;;16.25;43.72;94958.06;4973834;28;20055;-81
2024/03/30 17:18:08;;;;;;;25.42;5.35;;;;;;;16.18;44.29;94965.38;4973752;28;20474;-81
2024/03/30 17:20:35;;;;;;;27.15;5.50;;;;;;;16.15;44.34;94960.66;4973767;28;20065;-81
2024/03/30 17:23:02;;;;;;;28.17;6.32;;;;;;;16.12;44.79;94976.97;4973305;28;20057;-81
2024/03/30 17:25:28;;;;;;;40.50;6.45;;;;;;;16.04;45.22;94981.63;4975095;28;20507;-81
2024/03/30 17:27:55;;;;;;;35.05;6.95;;;;;;;15.96;45.25;94979.50;4974888;28;20063;-81
2024/03/30 17:30:21;;;;;;;26.58;5.43;;;;;;;15.91;45.38;94987.34;4973851;28;20066;-81
2024/03/30 17:32:51;;;;;;;26.73;5.35;;;;;;;15.88;45.64;94987.09;4973934;28;20094;-81
2024/03/30 17:35:19;;;;;;;29.92;5.97;;;;;;;15.84;45.79;94987.56;4973353;28;20423;-81
2024/03/30 17:37:47;;;;;;;35.03;5.97;;;;;;;15.78;45.59;95000.94;4973005;28;20062;-81
2024/03/30 17:40:13;;;;;;;35.22;6.18;;;;;;;15.71;45.63;95005.59;4973409;28;20059;-81
2024/03/30 17:42:40;;;;;;;31.67;5.25;;;;;;;15.62;45.52;95006.06;4973688;28;20569;-81
2024/03/30 17:45:07;;;;;;;35.33;6.03;;;;;;;15.55;45.71;95010.75;4974088;28;20054;-81
2024/03/30 17:47:33;;;;;;;35.17;6.10;;;;;;;15.44;45.46;95009.88;4973387;28;20050;-80
2024/03/30 17:50:00;;;;;;;34.60;6.25;;;;;;;15.34;45.79;95019.53;4974577;28;20407;-81
2024/03/30 17:52:29;;;;;;;32.20;5.18;;;;;;;15.29;45.80;95027.38;4978614;28;20062;-81
2024/03/30 17:54:55;;;;;;;35.55;5.65;;;;;;;15.23;45.32;95029.16;4993224;28;20058;-81
2024/03/30 17:57:22;;;;;;;40.22;7.22;;;;;;;15.18;45.51;95024.63;4990370;28;20046;-81
2024/03/30 17:59:50;;;;;;;37.05;7.20;;;;;;;15.12;45.33;95030.88;4974691;28;20051;-81
2024/03/30 18:02:17;;;;;;;41.13;6.65;;;;;;;15.07;45.51;95038.72;4976633;28;20047;-81
2024/03/30 18:04:43;;;;;;;38.58;6.07;;;;;;;15.02;45.69;95041.28;4974889;28;20051;-81
2024/03/30 18:07:10;;;;;;;42.90;6.07;;;;;;;14.98;45.96;95042.84;4977627;28;20426;-81
2024/03/30 18:09:38;;;;;;;34.50;5.95;;;;;;;14.95;46.18;95038.06;4977555;28;20240;-81
2024/03/30 18:12:05;;;;;;;34.97;6.07;;;;;;;14.92;46.25;95049.84;4977081;28;20518;-81
2024/03/30 18:14:32;;;;;;;33.92;6.07;;;;;;;14.93;46.59;95051.44;4976819;28;20059;-81
2024/03/30 18:16:59;;;;;;;30.20;7.50;;;;;;;14.99;46.40;95052.28;4977599;28;20062;-81
2024/03/30 18:19:25;;;;;;;43.42;7.03;;;;;;;15.00;46.42;95048.63;4985781;28;20473;-79
2024/03/30 18:21:52;;;;;;;35.80;6.90;;;;;;;15.00;46.57;95054.69;4978993;28;20043;-78
2024/03/30 18:24:22;;;;;;;32.08;6.50;;;;;;;15.00;46.74;95049.44;4977454;28;20109;-79
2024/03/30 18:26:50;;;;;;;38.85;6.82;;;;;;;15.00;46.91;95057.31;4978394;28;20061;-81
2024/03/30 18:29:17;;;;;;;34.42;6.97;;;;;;;15.00;46.92;95061.78;4999594;28;20035;-81
2024/03/30 18:31:43;;;;;;;36.40;6.55;;;;;;;14.96;47.30;95060.69;4992676;28;20059;-81
2024/03/30 18:34:11;;;;;;;28.35;6.40;;;;;;;14.92;47.16;95064.81;4997566;28;20059;-81
2024/03/30 18:36:38;;;;;;;35.58;5.75;;;;;;;14.91;47.66;95068.47;4990641;28;20577;-81
2024/03/30 18:39:04;;;;;;;31.40;6.03;;;;;;;14.92;47.56;95064.81;4981126;28;20055;-81